createdAt,value
2019-03-24T00:01:41.376Z,79.95
2019-03-24T00:04:34.612Z,73.17
2019-03-24T00:07:31.179Z,57.95
2019-03-24T00:10:26.931Z,60.85
2019-03-24T00:13:24.939Z,47.05
2019-03-24T00:16:20.989Z,57.65
2019-03-24T00:19:17.491Z,62.83
2019-03-24T00:22:13.647Z,64.12
2019-03-24T00:25:10.997Z,53.92
2019-03-24T00:28:06.938Z,56.95
2019-03-24T00:31:03.701Z,63.95
2019-03-24T00:34:00.199Z,68.33
2019-03-24T00:36:56.362Z,50.73
2019-03-24T00:39:52.366Z,41.63
2019-03-24T00:42:48.560Z,48.87
2019-03-24T00:45:45.721Z,48.25
2019-03-24T00:48:42.235Z,48.38
2019-03-24T00:51:40.272Z,36.03
2019-03-24T00:54:36.975Z,39.85
2019-03-24T00:57:34.012Z,51.23
2019-03-24T01:00:46.547Z,58.58
2019-03-24T01:03:42.849Z,50.83
2019-03-24T01:06:39.335Z,58.48
2019-03-24T01:09:35.744Z,57.70
2019-03-24T01:12:31.807Z,51.53
2019-03-24T01:15:28.637Z,53.60
2019-03-24T01:18:25.272Z,47.93
2019-03-24T01:21:21.260Z,69.35
2019-03-24T01:24:17.758Z,66.37
2019-03-24T01:27:13.735Z,47.20
2019-03-24T01:30:10.316Z,47.85
2019-03-24T01:33:06.736Z,48.58
2019-03-24T01:36:03.442Z,49.30
2019-03-24T01:39:00.598Z,50.28
2019-03-24T01:41:57.799Z,61.55
2019-03-24T01:44:54.463Z,60.55
2019-03-24T01:47:50.920Z,55.92
2019-03-24T01:50:47.727Z,57.05
2019-03-24T01:53:45.968Z,70.62
2019-03-24T01:56:42.322Z,68.12
2019-03-24T01:59:39.590Z,70.60
2019-03-24T02:02:36.457Z,68.33
2019-03-24T02:05:32.955Z,58.78
2019-03-24T02:08:29.970Z,69.27
2019-03-24T02:11:26.109Z,59.10
2019-03-24T02:14:22.353Z,64.40
2019-03-24T02:17:18.416Z,65.62
2019-03-24T02:20:14.861Z,72.97
2019-03-24T02:23:11.434Z,68.90
2019-03-24T02:26:08.357Z,68.33
2019-03-24T02:29:05.082Z,56.98
2019-03-24T02:32:01.481Z,51.58
2019-03-24T02:34:57.953Z,47.70
2019-03-24T02:37:54.164Z,49.25
2019-03-24T02:40:50.437Z,43.80
2019-03-24T02:43:46.932Z,48.55
2019-03-24T02:46:45.039Z,45.88
2019-03-24T02:49:43.892Z,38.75
2019-03-24T02:52:40.449Z,41.35
2019-03-24T02:55:39.441Z,48.05
2019-03-24T02:58:36.243Z,46.83
2019-03-24T03:01:32.714Z,53.75
2019-03-24T03:04:28.874Z,54.18
2019-03-24T03:07:28.242Z,44.27
2019-03-24T03:10:24.938Z,36.48
2019-03-24T03:13:20.863Z,41.10
2019-03-24T03:16:17.255Z,36.68
2019-03-24T03:19:13.320Z,44.80
2019-03-24T03:22:09.722Z,44.25
2019-03-24T03:25:06.123Z,40.20
2019-03-24T03:28:02.557Z,47.67
2019-03-24T03:30:58.782Z,42.40
2019-03-24T03:33:55.049Z,51.50
2019-03-24T03:36:52.106Z,52.03
2019-03-24T03:39:49.384Z,50.45
2019-03-24T03:42:47.339Z,46.90
2019-03-24T03:45:44.816Z,43.13
2019-03-24T03:48:41.411Z,43.83
2019-03-24T03:51:40.677Z,37.50
2019-03-24T03:54:36.993Z,41.02
2019-03-24T03:57:35.292Z,36.13
2019-03-24T04:00:50.230Z,33.95
2019-03-24T04:03:46.162Z,28.00
2019-03-24T04:06:42.759Z,32.88
2019-03-24T04:09:39.209Z,33.15
2019-03-24T04:12:35.551Z,36.60
2019-03-24T04:15:31.396Z,29.95
2019-03-24T04:18:28.022Z,34.40
2019-03-24T04:21:24.411Z,36.33
2019-03-24T04:24:21.244Z,26.10
2019-03-24T04:27:17.795Z,33.15
2019-03-24T04:30:14.309Z,30.57
2019-03-24T04:33:11.452Z,29.23
2019-03-24T04:36:07.767Z,43.75
2019-03-24T04:39:04.278Z,36.95
2019-03-24T04:42:02.634Z,33.25
2019-03-24T04:44:56.710Z,31.57
2019-03-24T04:47:54.202Z,38.90
2019-03-24T04:50:51.043Z,30.75
2019-03-24T04:53:47.758Z,27.48
2019-03-24T04:56:44.142Z,34.90
2019-03-24T04:59:41.041Z,36.10
2019-03-24T05:02:37.939Z,31.82
2019-03-24T05:05:34.505Z,47.33
2019-03-24T05:08:31.860Z,30.23
2019-03-24T05:11:28.269Z,34.27
2019-03-24T05:14:24.503Z,39.38
2019-03-24T05:17:27.050Z,33.00
2019-03-24T05:20:17.750Z,38.15
2019-03-24T05:23:15.305Z,30.10
2019-03-24T05:26:12.361Z,35.85
2019-03-24T05:29:09.123Z,42.93
2019-03-24T05:32:05.930Z,34.83
2019-03-24T05:35:03.196Z,33.05
2019-03-24T05:37:59.911Z,34.65
2019-03-24T05:40:59.691Z,31.00
2019-03-24T05:43:57.757Z,23.83
2019-03-24T05:46:54.551Z,30.80
2019-03-24T05:49:50.557Z,29.57
2019-03-24T05:52:47.455Z,26.35
2019-03-24T05:55:44.625Z,30.85
2019-03-24T05:58:41.556Z,26.10
2019-03-24T06:01:37.697Z,25.80
2019-03-24T06:04:33.850Z,22.73
2019-03-24T06:07:29.957Z,25.50
2019-03-24T06:10:26.090Z,28.25
2019-03-24T06:13:22.041Z,23.70
2019-03-24T06:16:17.984Z,29.37
2019-03-24T06:19:14.406Z,29.90
2019-03-24T06:22:10.720Z,26.95
2019-03-24T06:25:07.280Z,25.40
2019-03-24T06:28:03.451Z,22.90
2019-03-24T06:31:01.732Z,24.85
2019-03-24T06:33:56.562Z,29.52
2019-03-24T06:36:52.745Z,29.65
2019-03-24T06:39:48.918Z,29.48
2019-03-24T06:42:45.713Z,26.85
2019-03-24T06:45:42.686Z,22.00
2019-03-24T06:48:39.343Z,27.42
2019-03-24T06:51:35.795Z,26.97
2019-03-24T06:54:32.416Z,22.40
2019-03-24T06:57:29.388Z,22.98
2019-03-24T07:00:25.395Z,22.17
2019-03-24T07:03:21.446Z,25.17
2019-03-24T07:06:17.703Z,22.50
2019-03-24T07:09:13.770Z,28.77
2019-03-24T07:12:11.712Z,31.17
2019-03-24T07:15:08.803Z,23.80
2019-03-24T07:18:08.666Z,23.70
2019-03-24T07:21:04.161Z,24.75
2019-03-24T07:24:00.620Z,25.05
2019-03-24T07:26:56.599Z,26.37
2019-03-24T07:29:53.252Z,29.15
2019-03-24T07:32:48.996Z,23.75
2019-03-24T07:35:45.394Z,29.55
2019-03-24T07:38:42.618Z,27.52
2019-03-24T07:41:39.272Z,24.57
2019-03-24T07:44:36.056Z,21.33
2019-03-24T07:47:32.079Z,25.85
2019-03-24T07:50:28.421Z,28.35
2019-03-24T07:53:24.471Z,40.00
2019-03-24T07:56:20.791Z,38.88
2019-03-24T07:59:16.658Z,46.25
2019-03-24T08:02:12.712Z,37.28
2019-03-24T08:05:08.810Z,33.78
2019-03-24T08:08:04.654Z,31.73
2019-03-24T08:11:00.494Z,38.73
2019-03-24T08:13:56.631Z,41.28
2019-03-24T08:16:53.064Z,32.70
2019-03-24T08:19:49.192Z,32.05
2019-03-24T08:22:45.530Z,48.73
2019-03-24T08:25:41.402Z,37.42
2019-03-24T08:28:37.913Z,44.35
2019-03-24T08:31:34.330Z,50.12
2019-03-24T08:34:31.005Z,41.70
2019-03-24T08:37:28.437Z,44.33
2019-03-24T08:40:24.413Z,36.45
2019-03-24T08:43:21.956Z,32.13
2019-03-24T08:46:18.328Z,30.08
2019-03-24T08:49:14.919Z,33.02
2019-03-24T08:52:12.791Z,28.12
2019-03-24T08:55:08.324Z,31.73
2019-03-24T08:58:04.423Z,37.90
2019-03-24T09:01:01.247Z,33.23
2019-03-24T09:03:58.042Z,36.80
2019-03-24T09:06:54.177Z,32.15
2019-03-24T09:09:50.605Z,35.83
2019-03-24T09:12:47.197Z,41.05
2019-03-24T09:15:43.284Z,42.10
2019-03-24T09:18:51.686Z,35.92
2019-03-24T09:21:39.774Z,36.42
2019-03-24T09:24:38.514Z,30.90
2019-03-24T09:27:34.395Z,41.77
2019-03-24T09:30:41.832Z,31.45
2019-03-24T09:33:38.836Z,34.63
2019-03-24T09:36:35.252Z,38.63
2019-03-24T09:39:31.489Z,39.50
2019-03-24T09:42:28.380Z,32.73
2019-03-24T09:45:25.709Z,41.25
2019-03-24T09:48:21.832Z,35.00
2019-03-24T09:51:18.152Z,34.27
2019-03-24T09:54:14.738Z,31.10
2019-03-24T09:57:11.851Z,30.55
2019-03-24T10:00:08.815Z,40.00
2019-03-24T10:03:05.813Z,32.58
2019-03-24T10:06:02.658Z,39.48
2019-03-24T10:08:58.951Z,48.58
2019-03-24T10:11:55.455Z,45.92
2019-03-24T10:14:53.562Z,34.92
2019-03-24T10:17:49.595Z,31.45
2019-03-24T10:20:47.426Z,36.17
2019-03-24T10:23:43.827Z,33.70
2019-03-24T10:26:39.660Z,35.43
2019-03-24T10:29:36.346Z,30.72
2019-03-24T10:32:32.426Z,29.02
2019-03-24T10:35:29.229Z,29.25
2019-03-24T10:38:26.261Z,31.82
2019-03-24T10:41:22.792Z,29.48
2019-03-24T10:44:19.804Z,39.48
2019-03-24T10:47:17.198Z,37.70
2019-03-24T10:50:14.515Z,35.43
2019-03-24T10:53:11.624Z,33.02
2019-03-24T10:56:07.675Z,27.22
2019-03-24T10:59:04.059Z,29.20
2019-03-24T11:02:01.359Z,45.98
2019-03-24T11:04:58.948Z,38.75
2019-03-24T11:07:55.220Z,41.48
2019-03-24T11:10:51.678Z,36.58
2019-03-24T11:13:48.494Z,27.70
2019-03-24T11:16:45.375Z,40.63
2019-03-24T11:19:42.220Z,34.20
2019-03-24T11:22:38.862Z,32.35
2019-03-24T11:25:36.184Z,32.58
2019-03-24T11:28:32.447Z,31.80
2019-03-24T11:31:29.387Z,29.80
2019-03-24T11:34:26.312Z,36.42
2019-03-24T11:37:23.950Z,38.90
2019-03-24T11:40:21.200Z,32.65
2019-03-24T11:43:17.582Z,30.70
2019-03-24T11:46:13.875Z,31.25
2019-03-24T11:49:19.668Z,30.48
2019-03-24T11:52:15.979Z,47.67
2019-03-24T11:55:13.018Z,34.98
2019-03-24T11:58:09.836Z,32.95
2019-03-24T12:01:06.505Z,36.93
2019-03-24T12:04:03.295Z,33.45
2019-03-24T12:07:00.034Z,44.50
2019-03-24T12:09:56.816Z,37.93
2019-03-24T12:12:53.463Z,39.15
2019-03-24T12:15:50.681Z,33.60
2019-03-24T12:18:46.883Z,39.05
2019-03-24T12:21:42.741Z,43.70
2019-03-24T12:24:39.895Z,32.23
2019-03-24T12:27:37.867Z,41.98
2019-03-24T12:30:34.087Z,43.95
2019-03-24T12:33:30.908Z,48.13
2019-03-24T12:36:27.830Z,53.98
2019-03-24T12:39:24.198Z,66.25
2019-03-24T12:42:20.989Z,56.83
2019-03-24T12:45:18.558Z,55.40
2019-03-24T12:48:14.716Z,54.53
2019-03-24T12:51:10.996Z,50.33
2019-03-24T12:54:07.859Z,52.45
2019-03-24T12:57:04.661Z,57.35
2019-03-24T13:00:01.632Z,59.15
2019-03-24T13:02:59.639Z,57.38
2019-03-24T13:05:56.048Z,56.80
2019-03-24T13:08:52.905Z,46.20
2019-03-24T13:11:50.533Z,40.05
2019-03-24T13:14:49.455Z,54.65
2019-03-24T13:17:45.427Z,62.85
2019-03-24T13:20:42.250Z,68.00
2019-03-24T13:23:39.678Z,64.92
2019-03-24T13:26:36.521Z,78.97
2019-03-24T13:29:33.466Z,85.45
2019-03-24T13:32:30.442Z,122.50
2019-03-24T13:35:27.318Z,103.87
2019-03-24T13:38:27.610Z,126.27
2019-03-24T13:41:24.115Z,91.95
2019-03-24T13:44:20.592Z,106.30
2019-03-24T13:47:17.260Z,103.05
2019-03-24T13:50:14.165Z,114.35
2019-03-24T13:53:11.290Z,132.32
2019-03-24T13:56:07.526Z,112.03
2019-03-24T13:59:04.102Z,113.57
2019-03-24T14:02:00.339Z,127.32
2019-03-24T14:04:58.075Z,128.00
2019-03-24T14:07:56.108Z,107.45
2019-03-24T14:10:53.853Z,127.75
2019-03-24T14:13:52.113Z,160.65
2019-03-24T14:16:50.730Z,137.45
2019-03-24T14:19:47.862Z,117.67
2019-03-24T14:22:45.975Z,127.62
2019-03-24T14:25:42.477Z,128.32
2019-03-24T14:28:39.454Z,118.45
2019-03-24T14:31:36.115Z,131.03
2019-03-24T14:34:33.835Z,119.95
2019-03-24T14:37:30.530Z,161.77
2019-03-24T14:40:29.090Z,139.77
2019-03-24T14:43:27.576Z,133.63
2019-03-24T14:46:23.838Z,144.22
2019-03-24T14:49:22.126Z,142.72
2019-03-24T14:52:19.409Z,132.47
2019-03-24T14:55:15.897Z,142.50
2019-03-24T14:58:14.129Z,150.68
2019-03-24T15:01:10.886Z,118.87
2019-03-24T15:04:06.811Z,95.77
2019-03-24T15:07:05.368Z,118.67
2019-03-24T15:10:01.564Z,79.40
2019-03-24T15:13:00.101Z,80.47
2019-03-24T15:15:56.538Z,69.80
2019-03-24T15:18:52.644Z,80.70
2019-03-24T15:21:50.090Z,81.57
2019-03-24T15:24:46.214Z,88.92
2019-03-24T15:27:43.609Z,83.20
2019-03-24T15:30:39.988Z,74.58
2019-03-24T15:33:36.971Z,74.67
2019-03-24T15:36:33.507Z,76.55
2019-03-24T15:39:29.718Z,64.87
2019-03-24T15:42:26.051Z,68.97
2019-03-24T15:45:22.795Z,73.00
2019-03-24T15:48:20.481Z,63.65
2019-03-24T15:51:17.318Z,63.65
2019-03-24T15:54:13.495Z,83.92
2019-03-24T15:57:10.460Z,61.20
2019-03-24T16:00:07.939Z,82.85
2019-03-24T16:03:04.899Z,76.90
2019-03-24T16:06:00.979Z,69.75
2019-03-24T16:08:57.574Z,69.62
2019-03-24T16:11:53.861Z,57.17
2019-03-24T16:14:50.177Z,68.87
2019-03-24T16:17:46.343Z,71.35
2019-03-24T16:20:43.244Z,56.88
2019-03-24T16:23:40.662Z,80.42
2019-03-24T16:26:37.700Z,59.15
2019-03-24T16:29:33.907Z,73.25
2019-03-24T16:32:30.853Z,65.97
2019-03-24T16:35:28.409Z,86.97
2019-03-24T16:38:25.478Z,79.32
2019-03-24T16:41:22.918Z,99.70
2019-03-24T16:44:20.488Z,87.70
2019-03-24T16:47:18.561Z,86.35
2019-03-24T16:50:16.391Z,81.05
2019-03-24T16:53:12.290Z,82.30
2019-03-24T16:56:08.854Z,83.58
2019-03-24T16:59:05.515Z,74.17
2019-03-24T17:02:02.597Z,81.08
2019-03-24T17:04:58.939Z,80.12
2019-03-24T17:07:55.687Z,75.37
2019-03-24T17:10:52.272Z,80.05
2019-03-24T17:13:48.892Z,78.37
2019-03-24T17:16:45.203Z,73.07
2019-03-24T17:19:41.616Z,66.67
2019-03-24T17:22:38.257Z,67.22
2019-03-24T17:25:35.195Z,66.37
2019-03-24T17:28:32.119Z,72.78
2019-03-24T17:31:29.154Z,65.92
2019-03-24T17:34:25.257Z,62.53
2019-03-24T17:37:22.081Z,64.75
2019-03-24T17:40:18.937Z,65.42
2019-03-24T17:43:15.766Z,53.58
2019-03-24T17:46:13.808Z,58.28
2019-03-24T17:49:10.806Z,51.15
2019-03-24T17:52:07.430Z,57.70
2019-03-24T17:55:04.317Z,63.35
2019-03-24T17:58:01.024Z,66.57
2019-03-24T18:00:58.951Z,53.87
2019-03-24T18:03:54.920Z,58.68
2019-03-24T18:06:51.436Z,58.80
2019-03-24T18:09:48.001Z,69.03
2019-03-24T18:12:44.304Z,49.83
2019-03-24T18:15:40.465Z,59.23
2019-03-24T18:18:36.971Z,53.65
2019-03-24T18:21:33.239Z,58.15
2019-03-24T18:24:29.728Z,56.28
2019-03-24T18:27:26.074Z,58.02
2019-03-24T18:30:22.919Z,70.08
2019-03-24T18:33:19.296Z,65.45
2019-03-24T18:36:15.875Z,61.73
2019-03-24T18:39:13.952Z,77.40
2019-03-24T18:42:13.008Z,65.67
2019-03-24T18:45:10.717Z,73.52
2019-03-24T18:48:07.470Z,73.78
2019-03-24T18:51:04.353Z,64.77
2019-03-24T18:54:00.591Z,62.23
2019-03-24T18:56:57.620Z,69.80
2019-03-24T18:59:53.933Z,63.85
2019-03-24T19:02:50.539Z,73.80
2019-03-24T19:05:47.330Z,64.75
2019-03-24T19:08:43.855Z,63.60
2019-03-24T19:11:40.642Z,63.33
2019-03-24T19:14:37.205Z,57.27
2019-03-24T19:17:33.792Z,49.35
2019-03-24T19:20:30.432Z,50.33
2019-03-24T19:23:26.976Z,54.45
2019-03-24T19:26:23.578Z,52.10
2019-03-24T19:29:20.190Z,50.08
2019-03-24T19:32:16.909Z,50.05
2019-03-24T19:35:13.853Z,50.40
2019-03-24T19:38:10.203Z,61.98
2019-03-24T19:41:06.979Z,46.37
2019-03-24T19:44:03.425Z,46.68
2019-03-24T19:46:59.987Z,47.60
2019-03-24T19:49:57.507Z,53.78
2019-03-24T19:52:54.195Z,49.85
2019-03-24T19:55:50.792Z,47.93
2019-03-24T19:58:47.381Z,51.88
2019-03-24T20:01:44.435Z,48.45
2019-03-24T20:04:41.318Z,50.78
2019-03-24T20:07:47.526Z,49.15
2019-03-24T20:10:34.597Z,48.45
2019-03-24T20:13:30.795Z,56.42
2019-03-24T20:16:27.127Z,44.42
2019-03-24T20:19:24.797Z,48.15
2019-03-24T20:22:20.627Z,50.15
2019-03-24T20:25:17.290Z,54.93
2019-03-24T20:28:14.081Z,57.40
2019-03-24T20:31:10.328Z,51.05
2019-03-24T20:34:06.657Z,54.58
2019-03-24T20:37:03.212Z,67.45
2019-03-24T20:39:59.782Z,59.38
2019-03-24T20:42:56.240Z,64.87
2019-03-24T20:45:52.786Z,71.30
2019-03-24T20:48:49.334Z,57.35
2019-03-24T20:51:45.742Z,64.87
2019-03-24T20:54:42.456Z,73.33
2019-03-24T20:57:38.970Z,77.17
2019-03-24T21:00:40.675Z,73.30
2019-03-24T21:03:37.453Z,79.27
2019-03-24T21:06:34.322Z,92.67
2019-03-24T21:09:30.947Z,96.97
2019-03-24T21:12:26.866Z,98.22
2019-03-24T21:15:23.500Z,107.83
2019-03-24T21:18:20.177Z,109.87
2019-03-24T21:21:16.925Z,124.38
2019-03-24T21:24:13.474Z,125.62
2019-03-24T21:27:09.881Z,133.05
2019-03-24T21:30:06.607Z,143.05
2019-03-24T21:33:03.330Z,146.13
2019-03-24T21:35:59.911Z,156.87
2019-03-24T21:38:57.443Z,184.07
2019-03-24T21:41:53.923Z,181.93
2019-03-24T21:44:50.615Z,184.43
2019-03-24T21:47:47.001Z,188.45
2019-03-24T21:50:44.162Z,167.07
2019-03-24T21:53:41.139Z,190.50
2019-03-24T21:56:38.441Z,185.80
2019-03-24T21:59:34.969Z,197.65
2019-03-24T22:02:31.651Z,187.10
2019-03-24T22:05:27.833Z,177.27
2019-03-24T22:08:24.407Z,174.35
2019-03-24T22:11:21.424Z,175.25
2019-03-24T22:14:18.136Z,185.28
2019-03-24T22:17:15.062Z,182.05
2019-03-24T22:20:12.351Z,143.75
2019-03-24T22:23:08.685Z,144.93
2019-03-24T22:26:04.780Z,145.87
2019-03-24T22:29:01.276Z,123.75
2019-03-24T22:31:58.667Z,126.47
2019-03-24T22:34:55.099Z,125.10
2019-03-24T22:37:51.741Z,131.52
2019-03-24T22:40:48.270Z,144.45
2019-03-24T22:43:45.036Z,132.20
2019-03-24T22:46:41.805Z,127.65
2019-03-24T22:49:38.059Z,129.85
2019-03-24T22:52:34.647Z,139.95
2019-03-24T22:55:30.752Z,139.22
2019-03-24T22:58:26.669Z,154.53
2019-03-24T23:01:23.243Z,168.40
2019-03-24T23:04:21.504Z,159.70
2019-03-24T23:07:17.537Z,175.12
2019-03-24T23:10:15.025Z,168.57
2019-03-24T23:13:11.520Z,185.67
2019-03-24T23:16:08.084Z,181.45
2019-03-24T23:19:04.459Z,208.85
2019-03-24T23:22:00.793Z,214.75
2019-03-24T23:24:57.011Z,187.45
2019-03-24T23:27:53.629Z,185.15
2019-03-24T23:30:50.415Z,193.15
2019-03-24T23:33:47.199Z,186.50
2019-03-24T23:36:43.967Z,213.12
2019-03-24T23:39:40.361Z,193.37
2019-03-24T23:42:38.161Z,206.78
2019-03-24T23:45:34.892Z,196.98
2019-03-24T23:48:32.004Z,200.00
2019-03-24T23:51:28.388Z,195.50
2019-03-24T23:54:27.328Z,192.77
2019-03-24T23:57:21.571Z,185.70
